sensor_id;sensor_type;location;lat;lon;timestamp;P1;durP1;ratioP1;P2;durP2;ratioP2
37239;SDS011;23130;48.760;9.178;2022-07-23T00:00:39;5.90;;;4.60;;
37239;SDS011;23130;48.760;9.178;2022-07-23T00:03:05;6.45;;;4.97;;
37239;SDS011;23130;48.760;9.178;2022-07-23T00:05:31;7.28;;;5.25;;
37239;SDS011;23130;48.760;9.178;2022-07-23T00:07:56;5.40;;;4.68;;
37239;SDS011;23130;48.760;9.178;2022-07-23T00:10:22;6.75;;;4.40;;
37239;SDS011;23130;48.760;9.178;2022-07-23T00:12:47;5.43;;;4.47;;
37239;SDS011;23130;48.760;9.178;2022-07-23T00:15:13;5.35;;;4.38;;
37239;SDS011;23130;48.760;9.178;2022-07-23T00:17:38;4.90;;;4.15;;
37239;SDS011;23130;48.760;9.178;2022-07-23T00:20:04;5.25;;;4.75;;
37239;SDS011;23130;48.760;9.178;2022-07-23T00:22:30;8.02;;;4.47;;
37239;SDS011;23130;48.760;9.178;2022-07-23T00:24:56;5.13;;;3.92;;
37239;SDS011;23130;48.760;9.178;2022-07-23T00:27:22;5.68;;;4.18;;
37239;SDS011;23130;48.760;9.178;2022-07-23T00:29:48;5.65;;;4.45;;
37239;SDS011;23130;48.760;9.178;2022-07-23T00:32:13;4.03;;;3.42;;
37239;SDS011;23130;48.760;9.178;2022-07-23T00:34:39;3.95;;;3.55;;
37239;SDS011;23130;48.760;9.178;2022-07-23T00:37:04;3.83;;;3.22;;
37239;SDS011;23130;48.760;9.178;2022-07-23T00:39:30;5.13;;;4.05;;
37239;SDS011;23130;48.760;9.178;2022-07-23T00:41:55;4.30;;;3.65;;
37239;SDS011;23130;48.760;9.178;2022-07-23T00:44:22;5.93;;;4.72;;
37239;SDS011;23130;48.760;9.178;2022-07-23T00:46:53;5.45;;;4.22;;
37239;SDS011;23130;48.760;9.178;2022-07-23T00:49:21;7.88;;;4.72;;
37239;SDS011;23130;48.760;9.178;2022-07-23T00:51:48;4.72;;;4.20;;
37239;SDS011;23130;48.760;9.178;2022-07-23T00:54:14;5.07;;;4.40;;
37239;SDS011;23130;48.760;9.178;2022-07-23T00:56:42;5.18;;;4.68;;
37239;SDS011;23130;48.760;9.178;2022-07-23T00:59:09;4.57;;;4.18;;
37239;SDS011;23130;48.760;9.178;2022-07-23T01:01:35;6.78;;;4.68;;
37239;SDS011;23130;48.760;9.178;2022-07-23T01:04:01;8.43;;;4.63;;
37239;SDS011;23130;48.760;9.178;2022-07-23T01:06:26;6.88;;;4.28;;
37239;SDS011;23130;48.760;9.178;2022-07-23T01:08:53;4.18;;;3.75;;
37239;SDS011;23130;48.760;9.178;2022-07-23T01:11:19;6.22;;;4.43;;
37239;SDS011;23130;48.760;9.178;2022-07-23T01:13:46;7.43;;;4.50;;
37239;SDS011;23130;48.760;9.178;2022-07-23T01:16:12;7.20;;;4.85;;
37239;SDS011;23130;48.760;9.178;2022-07-23T01:18:38;4.32;;;3.50;;
37239;SDS011;23130;48.760;9.178;2022-07-23T01:21:03;5.35;;;4.15;;
37239;SDS011;23130;48.760;9.178;2022-07-23T01:23:29;5.88;;;3.90;;
37239;SDS011;23130;48.760;9.178;2022-07-23T01:25:55;4.20;;;3.80;;
37239;SDS011;23130;48.760;9.178;2022-07-23T01:28:20;4.68;;;3.95;;
37239;SDS011;23130;48.760;9.178;2022-07-23T01:30:46;4.07;;;3.60;;
37239;SDS011;23130;48.760;9.178;2022-07-23T01:33:12;4.10;;;3.70;;
37239;SDS011;23130;48.760;9.178;2022-07-23T01:35:38;5.60;;;3.70;;
37239;SDS011;23130;48.760;9.178;2022-07-23T01:38:05;5.60;;;3.67;;
37239;SDS011;23130;48.760;9.178;2022-07-23T01:40:31;5.95;;;4.00;;
37239;SDS011;23130;48.760;9.178;2022-07-23T01:42:56;4.30;;;3.45;;
37239;SDS011;23130;48.760;9.178;2022-07-23T01:45:22;5.50;;;4.32;;
37239;SDS011;23130;48.760;9.178;2022-07-23T01:47:48;5.22;;;4.10;;
37239;SDS011;23130;48.760;9.178;2022-07-23T01:50:13;5.45;;;4.15;;
37239;SDS011;23130;48.760;9.178;2022-07-23T01:52:39;4.75;;;4.25;;
37239;SDS011;23130;48.760;9.178;2022-07-23T01:55:05;4.85;;;4.35;;
37239;SDS011;23130;48.760;9.178;2022-07-23T01:57:32;5.30;;;3.92;;
37239;SDS011;23130;48.760;9.178;2022-07-23T01:59:57;4.85;;;4.22;;
37239;SDS011;23130;48.760;9.178;2022-07-23T02:02:23;4.43;;;3.90;;
37239;SDS011;23130;48.760;9.178;2022-07-23T02:04:49;5.38;;;4.32;;
37239;SDS011;23130;48.760;9.178;2022-07-23T02:07:14;5.05;;;4.28;;
37239;SDS011;23130;48.760;9.178;2022-07-23T02:09:40;6.43;;;4.70;;
37239;SDS011;23130;48.760;9.178;2022-07-23T02:12:05;4.28;;;3.88;;
37239;SDS011;23130;48.760;9.178;2022-07-23T02:14:31;6.90;;;4.45;;
37239;SDS011;23130;48.760;9.178;2022-07-23T02:16:57;5.82;;;4.47;;
37239;SDS011;23130;48.760;9.178;2022-07-23T02:19:22;6.55;;;4.32;;
37239;SDS011;23130;48.760;9.178;2022-07-23T02:21:48;5.88;;;4.30;;
37239;SDS011;23130;48.760;9.178;2022-07-23T02:24:14;5.20;;;4.28;;
37239;SDS011;23130;48.760;9.178;2022-07-23T02:26:40;6.60;;;4.25;;
37239;SDS011;23130;48.760;9.178;2022-07-23T02:29:06;4.68;;;4.15;;
37239;SDS011;23130;48.760;9.178;2022-07-23T02:31:32;4.72;;;4.20;;
37239;SDS011;23130;48.760;9.178;2022-07-23T02:33:58;5.38;;;4.38;;
37239;SDS011;23130;48.760;9.178;2022-07-23T02:36:24;5.22;;;4.03;;
37239;SDS011;23130;48.760;9.178;2022-07-23T02:38:49;4.47;;;3.40;;
37239;SDS011;23130;48.760;9.178;2022-07-23T02:41:15;4.68;;;3.97;;
37239;SDS011;23130;48.760;9.178;2022-07-23T02:43:41;4.55;;;4.15;;
37239;SDS011;23130;48.760;9.178;2022-07-23T02:46:06;4.22;;;3.83;;
37239;SDS011;23130;48.760;9.178;2022-07-23T02:48:32;5.65;;;4.40;;
37239;SDS011;23130;48.760;9.178;2022-07-23T02:50:58;4.72;;;4.03;;
37239;SDS011;23130;48.760;9.178;2022-07-23T02:53:23;4.72;;;4.32;;
37239;SDS011;23130;48.760;9.178;2022-07-23T02:55:49;5.00;;;4.05;;
37239;SDS011;23130;48.760;9.178;2022-07-23T02:58:14;5.38;;;4.72;;
37239;SDS011;23130;48.760;9.178;2022-07-23T03:00:40;5.18;;;4.68;;
37239;SDS011;23130;48.760;9.178;2022-07-23T03:03:06;6.00;;;5.05;;
37239;SDS011;23130;48.760;9.178;2022-07-23T03:05:32;5.45;;;4.15;;
37239;SDS011;23130;48.760;9.178;2022-07-23T03:07:58;5.65;;;5.03;;
37239;SDS011;23130;48.760;9.178;2022-07-23T03:10:24;5.28;;;4.40;;
37239;SDS011;23130;48.760;9.178;2022-07-23T03:12:49;5.88;;;4.65;;
37239;SDS011;23130;48.760;9.178;2022-07-23T03:15:15;4.82;;;4.32;;
37239;SDS011;23130;48.760;9.178;2022-07-23T03:17:40;6.35;;;5.03;;
37239;SDS011;23130;48.760;9.178;2022-07-23T03:20:06;4.95;;;4.18;;
37239;SDS011;23130;48.760;9.178;2022-07-23T03:22:32;5.32;;;4.82;;
37239;SDS011;23130;48.760;9.178;2022-07-23T03:24:58;6.57;;;5.63;;
37239;SDS011;23130;48.760;9.178;2022-07-23T03:27:24;6.28;;;4.97;;
37239;SDS011;23130;48.760;9.178;2022-07-23T03:29:52;6.70;;;5.10;;
37239;SDS011;23130;48.760;9.178;2022-07-23T03:32:19;6.30;;;4.82;;
37239;SDS011;23130;48.760;9.178;2022-07-23T03:34:45;5.70;;;5.10;;
37239;SDS011;23130;48.760;9.178;2022-07-23T03:37:10;6.20;;;5.60;;
37239;SDS011;23130;48.760;9.178;2022-07-23T03:39:36;6.97;;;4.88;;
37239;SDS011;23130;48.760;9.178;2022-07-23T03:42:02;6.20;;;4.85;;
37239;SDS011;23130;48.760;9.178;2022-07-23T03:44:28;8.00;;;4.82;;
37239;SDS011;23130;48.760;9.178;2022-07-23T03:46:53;7.57;;;5.20;;
37239;SDS011;23130;48.760;9.178;2022-07-23T03:49:19;8.00;;;5.30;;
37239;SDS011;23130;48.760;9.178;2022-07-23T03:51:45;7.75;;;6.10;;
37239;SDS011;23130;48.760;9.178;2022-07-23T03:54:10;6.45;;;5.65;;
37239;SDS011;23130;48.760;9.178;2022-07-23T03:56:36;5.97;;;5.25;;
37239;SDS011;23130;48.760;9.178;2022-07-23T03:59:02;6.10;;;5.50;;
37239;SDS011;23130;48.760;9.178;2022-07-23T04:01:27;6.88;;;5.35;;
37239;SDS011;23130;48.760;9.178;2022-07-23T04:03:53;7.43;;;5.72;;
37239;SDS011;23130;48.760;9.178;2022-07-23T04:06:19;7.85;;;5.45;;
37239;SDS011;23130;48.760;9.178;2022-07-23T04:08:45;8.88;;;4.80;;
37239;SDS011;23130;48.760;9.178;2022-07-23T04:11:11;6.05;;;4.57;;
37239;SDS011;23130;48.760;9.178;2022-07-23T04:13:36;5.88;;;4.90;;
37239;SDS011;23130;48.760;9.178;2022-07-23T04:16:02;5.13;;;4.63;;
37239;SDS011;23130;48.760;9.178;2022-07-23T04:18:28;5.80;;;4.47;;
37239;SDS011;23130;48.760;9.178;2022-07-23T04:20:54;5.65;;;4.75;;
37239;SDS011;23130;48.760;9.178;2022-07-23T04:23:20;5.22;;;4.53;;
37239;SDS011;23130;48.760;9.178;2022-07-23T04:25:45;5.13;;;4.63;;
37239;SDS011;23130;48.760;9.178;2022-07-23T04:28:11;7.13;;;5.45;;
37239;SDS011;23130;48.760;9.178;2022-07-23T04:30:36;5.82;;;4.55;;
37239;SDS011;23130;48.760;9.178;2022-07-23T04:33:02;5.35;;;4.57;;
37239;SDS011;23130;48.760;9.178;2022-07-23T04:35:31;5.95;;;5.00;;
37239;SDS011;23130;48.760;9.178;2022-07-23T04:37:58;5.47;;;4.82;;
37239;SDS011;23130;48.760;9.178;2022-07-23T04:40:24;6.65;;;5.05;;
37239;SDS011;23130;48.760;9.178;2022-07-23T04:42:50;7.30;;;5.57;;
37239;SDS011;23130;48.760;9.178;2022-07-23T04:45:16;8.10;;;4.22;;
37239;SDS011;23130;48.760;9.178;2022-07-23T04:47:41;8.20;;;5.28;;
37239;SDS011;23130;48.760;9.178;2022-07-23T04:50:07;4.88;;;4.20;;
37239;SDS011;23130;48.760;9.178;2022-07-23T04:52:33;6.88;;;4.30;;
37239;SDS011;23130;48.760;9.178;2022-07-23T04:54:58;6.20;;;5.07;;
37239;SDS011;23130;48.760;9.178;2022-07-23T04:57:24;6.20;;;4.72;;
37239;SDS011;23130;48.760;9.178;2022-07-23T04:59:49;5.68;;;4.40;;
37239;SDS011;23130;48.760;9.178;2022-07-23T05:02:15;5.43;;;4.70;;
37239;SDS011;23130;48.760;9.178;2022-07-23T05:04:40;6.03;;;4.45;;
37239;SDS011;23130;48.760;9.178;2022-07-23T05:07:06;5.22;;;4.72;;
37239;SDS011;23130;48.760;9.178;2022-07-23T05:09:31;6.03;;;4.38;;
37239;SDS011;23130;48.760;9.178;2022-07-23T05:11:57;6.22;;;4.22;;
37239;SDS011;23130;48.760;9.178;2022-07-23T05:14:22;6.20;;;4.30;;
37239;SDS011;23130;48.760;9.178;2022-07-23T05:16:48;6.10;;;4.40;;
37239;SDS011;23130;48.760;9.178;2022-07-23T05:19:13;5.00;;;4.43;;
37239;SDS011;23130;48.760;9.178;2022-07-23T05:21:39;5.80;;;5.25;;
37239;SDS011;23130;48.760;9.178;2022-07-23T05:24:05;5.38;;;4.78;;
37239;SDS011;23130;48.760;9.178;2022-07-23T05:26:31;5.50;;;4.63;;
37239;SDS011;23130;48.760;9.178;2022-07-23T05:28:56;5.82;;;5.15;;
37239;SDS011;23130;48.760;9.178;2022-07-23T05:31:22;6.10;;;5.18;;
37239;SDS011;23130;48.760;9.178;2022-07-23T05:33:47;7.97;;;5.22;;
37239;SDS011;23130;48.760;9.178;2022-07-23T05:36:13;5.85;;;4.55;;
37239;SDS011;23130;48.760;9.178;2022-07-23T05:38:38;4.65;;;4.25;;
37239;SDS011;23130;48.760;9.178;2022-07-23T05:41:04;10.15;;;5.82;;
37239;SDS011;23130;48.760;9.178;2022-07-23T05:43:30;5.75;;;4.70;;
37239;SDS011;23130;48.760;9.178;2022-07-23T05:45:55;6.03;;;5.38;;
37239;SDS011;23130;48.760;9.178;2022-07-23T05:48:21;6.10;;;4.88;;
37239;SDS011;23130;48.760;9.178;2022-07-23T05:50:47;7.45;;;5.07;;
37239;SDS011;23130;48.760;9.178;2022-07-23T05:53:12;6.10;;;5.18;;
37239;SDS011;23130;48.760;9.178;2022-07-23T05:55:38;6.30;;;5.15;;
37239;SDS011;23130;48.760;9.178;2022-07-23T05:58:04;5.85;;;5.25;;
37239;SDS011;23130;48.760;9.178;2022-07-23T06:00:30;6.63;;;5.47;;
37239;SDS011;23130;48.760;9.178;2022-07-23T06:02:56;9.82;;;5.40;;
37239;SDS011;23130;48.760;9.178;2022-07-23T06:05:22;6.38;;;5.03;;
37239;SDS011;23130;48.760;9.178;2022-07-23T06:07:47;6.18;;;5.28;;
37239;SDS011;23130;48.760;9.178;2022-07-23T06:10:13;5.68;;;5.07;;
37239;SDS011;23130;48.760;9.178;2022-07-23T06:12:39;7.28;;;5.72;;
37239;SDS011;23130;48.760;9.178;2022-07-23T06:15:04;7.07;;;5.93;;
37239;SDS011;23130;48.760;9.178;2022-07-23T06:17:30;7.45;;;5.32;;
37239;SDS011;23130;48.760;9.178;2022-07-23T06:19:56;6.45;;;5.30;;
37239;SDS011;23130;48.760;9.178;2022-07-23T06:22:21;5.60;;;4.90;;
37239;SDS011;23130;48.760;9.178;2022-07-23T06:24:48;5.72;;;5.22;;
37239;SDS011;23130;48.760;9.178;2022-07-23T06:27:15;6.60;;;5.75;;
37239;SDS011;23130;48.760;9.178;2022-07-23T06:29:41;6.53;;;5.20;;
37239;SDS011;23130;48.760;9.178;2022-07-23T06:32:07;7.45;;;5.47;;
37239;SDS011;23130;48.760;9.178;2022-07-23T06:34:33;7.45;;;5.35;;
37239;SDS011;23130;48.760;9.178;2022-07-23T06:36:59;6.40;;;5.63;;
37239;SDS011;23130;48.760;9.178;2022-07-23T06:39:25;5.65;;;4.75;;
37239;SDS011;23130;48.760;9.178;2022-07-23T06:41:51;7.45;;;4.75;;
37239;SDS011;23130;48.760;9.178;2022-07-23T06:44:16;8.77;;;6.03;;
37239;SDS011;23130;48.760;9.178;2022-07-23T06:46:42;5.70;;;5.20;;
37239;SDS011;23130;48.760;9.178;2022-07-23T06:49:08;6.97;;;6.28;;
37239;SDS011;23130;48.760;9.178;2022-07-23T06:51:33;5.35;;;4.60;;
37239;SDS011;23130;48.760;9.178;2022-07-23T06:53:59;7.28;;;4.80;;
37239;SDS011;23130;48.760;9.178;2022-07-23T06:56:25;5.90;;;4.82;;
37239;SDS011;23130;48.760;9.178;2022-07-23T06:58:50;8.85;;;5.88;;
37239;SDS011;23130;48.760;9.178;2022-07-23T07:01:16;6.07;;;5.47;;
37239;SDS011;23130;48.760;9.178;2022-07-23T07:03:42;7.18;;;5.47;;
37239;SDS011;23130;48.760;9.178;2022-07-23T07:06:07;5.68;;;5.18;;
37239;SDS011;23130;48.760;9.178;2022-07-23T07:08:33;6.88;;;5.45;;
37239;SDS011;23130;48.760;9.178;2022-07-23T07:10:59;5.68;;;4.95;;
37239;SDS011;23130;48.760;9.178;2022-07-23T07:13:24;7.00;;;5.43;;
37239;SDS011;23130;48.760;9.178;2022-07-23T07:15:50;5.15;;;4.60;;
37239;SDS011;23130;48.760;9.178;2022-07-23T07:18:15;5.63;;;5.03;;
37239;SDS011;23130;48.760;9.178;2022-07-23T07:20:41;12.02;;;6.50;;
37239;SDS011;23130;48.760;9.178;2022-07-23T07:23:07;6.53;;;5.85;;
37239;SDS011;23130;48.760;9.178;2022-07-23T07:25:32;7.95;;;5.00;;
37239;SDS011;23130;48.760;9.178;2022-07-23T07:27:58;5.78;;;5.10;;
37239;SDS011;23130;48.760;9.178;2022-07-23T07:30:23;5.80;;;5.18;;
37239;SDS011;23130;48.760;9.178;2022-07-23T07:32:49;7.78;;;5.95;;
37239;SDS011;23130;48.760;9.178;2022-07-23T07:35:15;8.82;;;6.43;;
37239;SDS011;23130;48.760;9.178;2022-07-23T07:37:40;6.32;;;5.35;;
37239;SDS011;23130;48.760;9.178;2022-07-23T07:40:06;8.70;;;5.82;;
37239;SDS011;23130;48.760;9.178;2022-07-23T07:42:32;7.03;;;6.30;;
37239;SDS011;23130;48.760;9.178;2022-07-23T07:44:58;6.50;;;5.20;;
37239;SDS011;23130;48.760;9.178;2022-07-23T07:47:24;6.80;;;5.65;;
37239;SDS011;23130;48.760;9.178;2022-07-23T07:49:49;9.70;;;7.05;;
37239;SDS011;23130;48.760;9.178;2022-07-23T07:52:15;8.23;;;5.85;;
37239;SDS011;23130;48.760;9.178;2022-07-23T07:54:40;6.28;;;5.70;;
37239;SDS011;23130;48.760;9.178;2022-07-23T07:57:06;6.28;;;5.63;;
37239;SDS011;23130;48.760;9.178;2022-07-23T07:59:31;6.50;;;5.47;;
37239;SDS011;23130;48.760;9.178;2022-07-23T08:01:57;7.18;;;5.53;;
37239;SDS011;23130;48.760;9.178;2022-07-23T08:04:22;8.13;;;5.07;;
37239;SDS011;23130;48.760;9.178;2022-07-23T08:06:48;9.55;;;5.38;;
37239;SDS011;23130;48.760;9.178;2022-07-23T08:09:13;7.65;;;5.80;;
37239;SDS011;23130;48.760;9.178;2022-07-23T08:11:39;6.68;;;5.25;;
37239;SDS011;23130;48.760;9.178;2022-07-23T08:14:05;7.00;;;4.80;;
37239;SDS011;23130;48.760;9.178;2022-07-23T08:16:30;6.25;;;4.85;;
37239;SDS011;23130;48.760;9.178;2022-07-23T08:18:56;5.45;;;4.65;;
37239;SDS011;23130;48.760;9.178;2022-07-23T08:21:21;5.45;;;4.88;;
37239;SDS011;23130;48.760;9.178;2022-07-23T08:23:47;6.28;;;5.68;;
37239;SDS011;23130;48.760;9.178;2022-07-23T08:26:13;6.03;;;5.45;;
37239;SDS011;23130;48.760;9.178;2022-07-23T08:28:38;6.30;;;5.00;;
37239;SDS011;23130;48.760;9.178;2022-07-23T08:31:04;5.75;;;4.75;;
37239;SDS011;23130;48.760;9.178;2022-07-23T08:33:30;7.05;;;5.68;;
37239;SDS011;23130;48.760;9.178;2022-07-23T08:35:56;5.85;;;5.35;;
37239;SDS011;23130;48.760;9.178;2022-07-23T08:38:22;5.32;;;4.82;;
37239;SDS011;23130;48.760;9.178;2022-07-23T08:40:50;7.70;;;5.57;;
37239;SDS011;23130;48.760;9.178;2022-07-23T08:43:20;5.82;;;5.32;;
37239;SDS011;23130;48.760;9.178;2022-07-23T08:45:52;6.25;;;5.65;;
37239;SDS011;23130;48.760;9.178;2022-07-23T08:48:22;6.82;;;5.30;;
37239;SDS011;23130;48.760;9.178;2022-07-23T08:50:50;5.90;;;5.10;;
37239;SDS011;23130;48.760;9.178;2022-07-23T08:53:21;6.28;;;5.05;;
37239;SDS011;23130;48.760;9.178;2022-07-23T08:55:48;5.20;;;4.70;;
37239;SDS011;23130;48.760;9.178;2022-07-23T08:58:16;6.22;;;5.25;;
37239;SDS011;23130;48.760;9.178;2022-07-23T09:00:43;5.28;;;4.78;;
37239;SDS011;23130;48.760;9.178;2022-07-23T09:03:15;5.63;;;4.97;;
37239;SDS011;23130;48.760;9.178;2022-07-23T09:05:45;6.30;;;5.25;;
37239;SDS011;23130;48.760;9.178;2022-07-23T09:08:13;5.22;;;4.53;;
37239;SDS011;23130;48.760;9.178;2022-07-23T09:10:47;5.50;;;4.93;;
37239;SDS011;23130;48.760;9.178;2022-07-23T09:16:06;5.50;;;5.00;;
37239;SDS011;23130;48.760;9.178;2022-07-23T09:18:41;5.60;;;4.68;;
37239;SDS011;23130;48.760;9.178;2022-07-23T09:21:21;4.72;;;4.32;;
37239;SDS011;23130;48.760;9.178;2022-07-23T09:26:26;5.90;;;4.60;;
37239;SDS011;23130;48.760;9.178;2022-07-23T09:29:04;5.55;;;5.05;;
37239;SDS011;23130;48.760;9.178;2022-07-23T09:31:54;5.30;;;4.80;;
37239;SDS011;23130;48.760;9.178;2022-07-23T09:34:22;5.32;;;4.80;;
37239;SDS011;23130;48.760;9.178;2022-07-23T09:39:27;6.03;;;4.85;;
37239;SDS011;23130;48.760;9.178;2022-07-23T09:41:58;4.57;;;4.13;;
37239;SDS011;23130;48.760;9.178;2022-07-23T09:44:45;5.32;;;4.82;;
37239;SDS011;23130;48.760;9.178;2022-07-23T09:47:13;5.38;;;4.88;;
37239;SDS011;23130;48.760;9.178;2022-07-23T09:49:39;5.45;;;4.95;;
37239;SDS011;23130;48.760;9.178;2022-07-23T09:52:05;5.63;;;4.65;;
37239;SDS011;23130;48.760;9.178;2022-07-23T09:54:37;4.82;;;4.32;;
37239;SDS011;23130;48.760;9.178;2022-07-23T09:57:11;5.20;;;4.60;;
37239;SDS011;23130;48.760;9.178;2022-07-23T09:59:42;6.68;;;4.55;;
37239;SDS011;23130;48.760;9.178;2022-07-23T10:02:11;6.38;;;4.97;;
37239;SDS011;23130;48.760;9.178;2022-07-23T10:04:38;5.97;;;5.38;;
37239;SDS011;23130;48.760;9.178;2022-07-23T10:07:05;5.90;;;5.30;;
37239;SDS011;23130;48.760;9.178;2022-07-23T10:09:33;8.30;;;5.38;;
37239;SDS011;23130;48.760;9.178;2022-07-23T10:12:02;6.32;;;5.05;;
37239;SDS011;23130;48.760;9.178;2022-07-23T10:14:35;5.97;;;5.35;;
37239;SDS011;23130;48.760;9.178;2022-07-23T10:17:02;7.20;;;6.25;;
37239;SDS011;23130;48.760;9.178;2022-07-23T10:19:29;6.50;;;5.80;;
37239;SDS011;23130;48.760;9.178;2022-07-23T10:21:57;6.57;;;5.05;;
37239;SDS011;23130;48.760;9.178;2022-07-23T10:30:12;7.63;;;5.43;;
37239;SDS011;23130;48.760;9.178;2022-07-23T10:38:42;5.40;;;4.53;;
37239;SDS011;23130;48.760;9.178;2022-07-23T10:41:11;6.30;;;5.47;;
37239;SDS011;23130;48.760;9.178;2022-07-23T10:43:37;5.75;;;5.10;;
37239;SDS011;23130;48.760;9.178;2022-07-23T10:46:22;5.60;;;5.10;;
37239;SDS011;23130;48.760;9.178;2022-07-23T10:54:46;5.57;;;4.97;;
37239;SDS011;23130;48.760;9.178;2022-07-23T10:57:14;5.22;;;4.60;;
37239;SDS011;23130;48.760;9.178;2022-07-23T11:02:26;6.38;;;4.88;;
37239;SDS011;23130;48.760;9.178;2022-07-23T11:04:54;9.13;;;5.20;;
37239;SDS011;23130;48.760;9.178;2022-07-23T11:07:23;5.18;;;4.70;;
37239;SDS011;23130;48.760;9.178;2022-07-23T11:09:49;5.50;;;4.97;;
37239;SDS011;23130;48.760;9.178;2022-07-23T11:17:37;6.00;;;5.40;;
37239;SDS011;23130;48.760;9.178;2022-07-23T11:22:46;5.90;;;5.35;;
37239;SDS011;23130;48.760;9.178;2022-07-23T11:25:35;5.80;;;5.13;;
37239;SDS011;23130;48.760;9.178;2022-07-23T11:28:16;6.75;;;5.47;;
37239;SDS011;23130;48.760;9.178;2022-07-23T11:30:46;6.40;;;4.70;;
37239;SDS011;23130;48.760;9.178;2022-07-23T11:35:42;6.07;;;5.20;;
37239;SDS011;23130;48.760;9.178;2022-07-23T11:38:16;6.13;;;5.35;;
37239;SDS011;23130;48.760;9.178;2022-07-23T11:40:44;6.13;;;5.10;;
37239;SDS011;23130;48.760;9.178;2022-07-23T11:43:12;5.82;;;5.25;;
37239;SDS011;23130;48.760;9.178;2022-07-23T11:45:42;5.72;;;5.22;;
37239;SDS011;23130;48.760;9.178;2022-07-23T11:48:18;5.47;;;4.97;;
37239;SDS011;23130;48.760;9.178;2022-07-23T11:50:48;6.53;;;5.43;;
37239;SDS011;23130;48.760;9.178;2022-07-23T11:53:48;7.43;;;5.78;;
37239;SDS011;23130;48.760;9.178;2022-07-23T11:56:10;6.20;;;5.60;;
37239;SDS011;23130;48.760;9.178;2022-07-23T11:58:36;6.90;;;5.72;;
37239;SDS011;23130;48.760;9.178;2022-07-23T12:01:03;5.43;;;4.93;;
37239;SDS011;23130;48.760;9.178;2022-07-23T12:03:29;5.55;;;4.93;;
37239;SDS011;23130;48.760;9.178;2022-07-23T12:05:58;6.38;;;5.78;;
37239;SDS011;23130;48.760;9.178;2022-07-23T12:08:24;6.60;;;5.88;;
37239;SDS011;23130;48.760;9.178;2022-07-23T12:10:50;6.53;;;5.35;;
37239;SDS011;23130;48.760;9.178;2022-07-23T12:13:17;7.20;;;5.30;;
37239;SDS011;23130;48.760;9.178;2022-07-23T12:15:44;6.60;;;6.00;;
37239;SDS011;23130;48.760;9.178;2022-07-23T12:18:13;6.03;;;5.53;;
37239;SDS011;23130;48.760;9.178;2022-07-23T12:20:44;6.45;;;5.85;;
37239;SDS011;23130;48.760;9.178;2022-07-23T12:23:13;6.35;;;5.82;;
37239;SDS011;23130;48.760;9.178;2022-07-23T12:25:41;8.60;;;6.18;;
37239;SDS011;23130;48.760;9.178;2022-07-23T12:28:21;11.73;;;10.48;;
37239;SDS011;23130;48.760;9.178;2022-07-23T12:30:54;7.85;;;7.03;;
37239;SDS011;23130;48.760;9.178;2022-07-23T12:33:22;6.25;;;5.63;;
37239;SDS011;23130;48.760;9.178;2022-07-23T12:35:49;6.53;;;5.93;;
37239;SDS011;23130;48.760;9.178;2022-07-23T12:38:19;5.97;;;5.38;;
37239;SDS011;23130;48.760;9.178;2022-07-23T12:40:47;5.57;;;5.07;;
37239;SDS011;23130;48.760;9.178;2022-07-23T12:43:35;6.38;;;5.82;;
37239;SDS011;23130;48.760;9.178;2022-07-23T12:48:37;6.63;;;5.95;;
37239;SDS011;23130;48.760;9.178;2022-07-23T12:51:17;7.13;;;6.43;;
37239;SDS011;23130;48.760;9.178;2022-07-23T12:53:46;6.28;;;5.68;;
37239;SDS011;23130;48.760;9.178;2022-07-23T12:56:15;6.85;;;5.57;;
37239;SDS011;23130;48.760;9.178;2022-07-23T13:03:53;7.63;;;6.20;;
37239;SDS011;23130;48.760;9.178;2022-07-23T13:06:21;8.05;;;6.18;;
37239;SDS011;23130;48.760;9.178;2022-07-23T13:08:46;8.05;;;6.85;;
37239;SDS011;23130;48.760;9.178;2022-07-23T13:11:12;6.13;;;5.53;;
37239;SDS011;23130;48.760;9.178;2022-07-23T13:13:38;6.97;;;6.38;;
37239;SDS011;23130;48.760;9.178;2022-07-23T13:16:04;7.82;;;6.00;;
37239;SDS011;23130;48.760;9.178;2022-07-23T13:18:29;8.20;;;6.25;;
37239;SDS011;23130;48.760;9.178;2022-07-23T13:20:55;6.40;;;5.55;;
37239;SDS011;23130;48.760;9.178;2022-07-23T13:23:21;7.07;;;5.40;;
37239;SDS011;23130;48.760;9.178;2022-07-23T13:25:47;6.95;;;5.93;;
37239;SDS011;23130;48.760;9.178;2022-07-23T13:28:14;6.95;;;5.72;;
37239;SDS011;23130;48.760;9.178;2022-07-23T13:30:40;5.88;;;4.97;;
37239;SDS011;23130;48.760;9.178;2022-07-23T13:33:06;7.60;;;5.35;;
37239;SDS011;23130;48.760;9.178;2022-07-23T13:35:33;6.05;;;5.45;;
37239;SDS011;23130;48.760;9.178;2022-07-23T13:38:00;5.97;;;5.40;;
37239;SDS011;23130;48.760;9.178;2022-07-23T13:40:26;7.03;;;5.10;;
37239;SDS011;23130;48.760;9.178;2022-07-23T13:42:52;7.03;;;6.32;;
37239;SDS011;23130;48.760;9.178;2022-07-23T13:45:17;6.72;;;6.03;;
37239;SDS011;23130;48.760;9.178;2022-07-23T13:47:43;6.43;;;5.20;;
37239;SDS011;23130;48.760;9.178;2022-07-23T13:50:08;7.65;;;5.78;;
37239;SDS011;23130;48.760;9.178;2022-07-23T13:52:34;6.75;;;6.07;;
37239;SDS011;23130;48.760;9.178;2022-07-23T13:55:01;7.40;;;6.70;;
37239;SDS011;23130;48.760;9.178;2022-07-23T13:57:29;6.15;;;5.55;;
37239;SDS011;23130;48.760;9.178;2022-07-23T13:59:55;6.43;;;5.40;;
37239;SDS011;23130;48.760;9.178;2022-07-23T14:02:20;6.20;;;5.60;;
37239;SDS011;23130;48.760;9.178;2022-07-23T14:04:46;7.20;;;6.00;;
37239;SDS011;23130;48.760;9.178;2022-07-23T14:07:12;7.35;;;6.65;;
37239;SDS011;23130;48.760;9.178;2022-07-23T14:09:38;8.25;;;7.40;;
37239;SDS011;23130;48.760;9.178;2022-07-23T14:12:04;8.18;;;5.97;;
37239;SDS011;23130;48.760;9.178;2022-07-23T14:14:29;6.95;;;6.25;;
37239;SDS011;23130;48.760;9.178;2022-07-23T14:16:55;7.85;;;5.72;;
37239;SDS011;23130;48.760;9.178;2022-07-23T14:19:22;6.55;;;5.95;;
37239;SDS011;23130;48.760;9.178;2022-07-23T14:21:47;6.88;;;6.00;;
37239;SDS011;23130;48.760;9.178;2022-07-23T14:24:13;6.75;;;5.95;;
37239;SDS011;23130;48.760;9.178;2022-07-23T14:26:40;6.75;;;5.85;;
37239;SDS011;23130;48.760;9.178;2022-07-23T14:29:06;7.75;;;6.03;;
37239;SDS011;23130;48.760;9.178;2022-07-23T14:31:31;7.45;;;6.45;;
37239;SDS011;23130;48.760;9.178;2022-07-23T14:33:57;7.15;;;6.43;;
37239;SDS011;23130;48.760;9.178;2022-07-23T14:36:22;8.25;;;6.00;;
37239;SDS011;23130;48.760;9.178;2022-07-23T14:38:48;6.72;;;6.13;;
37239;SDS011;23130;48.760;9.178;2022-07-23T14:41:14;6.60;;;5.88;;
37239;SDS011;23130;48.760;9.178;2022-07-23T14:43:39;6.55;;;5.95;;
37239;SDS011;23130;48.760;9.178;2022-07-23T14:46:06;8.52;;;5.90;;
37239;SDS011;23130;48.760;9.178;2022-07-23T14:48:31;7.85;;;5.63;;
37239;SDS011;23130;48.760;9.178;2022-07-23T14:50:57;6.43;;;5.75;;
37239;SDS011;23130;48.760;9.178;2022-07-23T14:53:22;6.13;;;5.53;;
37239;SDS011;23130;48.760;9.178;2022-07-23T14:55:48;5.57;;;5.07;;
37239;SDS011;23130;48.760;9.178;2022-07-23T14:58:14;6.07;;;5.38;;
37239;SDS011;23130;48.760;9.178;2022-07-23T15:00:39;6.68;;;6.07;;
37239;SDS011;23130;48.760;9.178;2022-07-23T15:03:05;6.28;;;5.68;;
37239;SDS011;23130;48.760;9.178;2022-07-23T15:05:31;6.68;;;5.95;;
37239;SDS011;23130;48.760;9.178;2022-07-23T15:07:56;6.53;;;5.82;;
37239;SDS011;23130;48.760;9.178;2022-07-23T15:10:22;6.95;;;5.90;;
37239;SDS011;23130;48.760;9.178;2022-07-23T15:12:48;5.93;;;5.35;;
37239;SDS011;23130;48.760;9.178;2022-07-23T15:15:14;6.65;;;5.97;;
37239;SDS011;23130;48.760;9.178;2022-07-23T15:17:40;7.43;;;6.32;;
37239;SDS011;23130;48.760;9.178;2022-07-23T15:20:06;5.90;;;5.38;;
37239;SDS011;23130;48.760;9.178;2022-07-23T15:22:32;6.53;;;5.93;;
37239;SDS011;23130;48.760;9.178;2022-07-23T15:24:57;6.93;;;6.20;;
37239;SDS011;23130;48.760;9.178;2022-07-23T15:27:23;7.50;;;5.80;;
37239;SDS011;23130;48.760;9.178;2022-07-23T15:29:48;6.43;;;5.82;;
37239;SDS011;23130;48.760;9.178;2022-07-23T15:32:14;7.43;;;5.75;;